sensor_id;sensor_type;location;lat;lon;timestamp;P1;durP1;ratioP1;P2;durP2;ratioP2
13263;SDS011;6700;51.988;7.646;2023-04-06T00:00:34;9.77;;;7.23;;
13263;SDS011;6700;51.988;7.646;2023-04-06T00:03:01;8.43;;;6.83;;
13263;SDS011;6700;51.988;7.646;2023-04-06T00:05:28;10.63;;;7.57;;
13263;SDS011;6700;51.988;7.646;2023-04-06T00:07:57;14.97;;;7.10;;
13263;SDS011;6700;51.988;7.646;2023-04-06T00:10:24;10.07;;;6.97;;
13263;SDS011;6700;51.988;7.646;2023-04-06T00:12:52;8.07;;;7.27;;
13263;SDS011;6700;51.988;7.646;2023-04-06T00:15:20;10.90;;;7.00;;
13263;SDS011;6700;51.988;7.646;2023-04-06T00:17:47;7.90;;;7.10;;
13263;SDS011;6700;51.988;7.646;2023-04-06T00:20:14;9.13;;;7.17;;
13263;SDS011;6700;51.988;7.646;2023-04-06T00:22:42;8.90;;;7.30;;
13263;SDS011;6700;51.988;7.646;2023-04-06T00:25:10;7.90;;;6.80;;
13263;SDS011;6700;51.988;7.646;2023-04-06T00:27:37;10.97;;;8.07;;
13263;SDS011;6700;51.988;7.646;2023-04-06T00:30:05;8.53;;;6.90;;
13263;SDS011;6700;51.988;7.646;2023-04-06T00:32:32;7.00;;;6.33;;
13263;SDS011;6700;51.988;7.646;2023-04-06T00:34:59;8.63;;;6.93;;
13263;SDS011;6700;51.988;7.646;2023-04-06T00:37:26;8.60;;;7.33;;
13263;SDS011;6700;51.988;7.646;2023-04-06T00:40:02;9.07;;;7.50;;
13263;SDS011;6700;51.988;7.646;2023-04-06T00:42:29;8.13;;;6.53;;
13263;SDS011;6700;51.988;7.646;2023-04-06T00:45:00;10.70;;;7.70;;
13263;SDS011;6700;51.988;7.646;2023-04-06T00:47:27;9.20;;;7.13;;
13263;SDS011;6700;51.988;7.646;2023-04-06T00:49:54;9.90;;;7.30;;
13263;SDS011;6700;51.988;7.646;2023-04-06T00:52:22;7.73;;;6.73;;
13263;SDS011;6700;51.988;7.646;2023-04-06T00:54:49;8.87;;;7.03;;
13263;SDS011;6700;51.988;7.646;2023-04-06T00:57:19;9.27;;;7.50;;
13263;SDS011;6700;51.988;7.646;2023-04-06T00:59:48;8.00;;;7.20;;
13263;SDS011;6700;51.988;7.646;2023-04-06T01:02:15;8.53;;;6.77;;
13263;SDS011;6700;51.988;7.646;2023-04-06T01:04:42;9.33;;;6.90;;
13263;SDS011;6700;51.988;7.646;2023-04-06T01:07:09;9.30;;;7.67;;
13263;SDS011;6700;51.988;7.646;2023-04-06T01:09:36;10.70;;;7.63;;
13263;SDS011;6700;51.988;7.646;2023-04-06T01:12:03;10.17;;;7.60;;
13263;SDS011;6700;51.988;7.646;2023-04-06T01:14:31;11.17;;;7.37;;
13263;SDS011;6700;51.988;7.646;2023-04-06T01:16:58;9.10;;;7.23;;
13263;SDS011;6700;51.988;7.646;2023-04-06T01:19:29;12.03;;;7.17;;
13263;SDS011;6700;51.988;7.646;2023-04-06T01:21:56;11.20;;;7.83;;
13263;SDS011;6700;51.988;7.646;2023-04-06T01:24:23;9.17;;;8.07;;
13263;SDS011;6700;51.988;7.646;2023-04-06T01:26:50;8.60;;;6.97;;
13263;SDS011;6700;51.988;7.646;2023-04-06T01:29:17;11.37;;;7.80;;
13263;SDS011;6700;51.988;7.646;2023-04-06T01:31:45;9.87;;;7.50;;
13263;SDS011;6700;51.988;7.646;2023-04-06T01:34:12;11.37;;;7.53;;
13263;SDS011;6700;51.988;7.646;2023-04-06T01:36:39;14.30;;;8.50;;
13263;SDS011;6700;51.988;7.646;2023-04-06T01:39:06;10.20;;;7.77;;
13263;SDS011;6700;51.988;7.646;2023-04-06T01:41:34;9.90;;;8.10;;
13263;SDS011;6700;51.988;7.646;2023-04-06T01:44:01;9.93;;;7.93;;
13263;SDS011;6700;51.988;7.646;2023-04-06T01:46:28;10.53;;;7.83;;
13263;SDS011;6700;51.988;7.646;2023-04-06T01:48:55;10.47;;;8.40;;
13263;SDS011;6700;51.988;7.646;2023-04-06T01:51:22;10.17;;;7.60;;
13263;SDS011;6700;51.988;7.646;2023-04-06T01:53:51;11.83;;;7.73;;
13263;SDS011;6700;51.988;7.646;2023-04-06T01:56:18;12.20;;;8.13;;
13263;SDS011;6700;51.988;7.646;2023-04-06T01:58:46;10.63;;;7.80;;
13263;SDS011;6700;51.988;7.646;2023-04-06T02:01:13;9.90;;;7.57;;
13263;SDS011;6700;51.988;7.646;2023-04-06T02:03:40;11.43;;;8.17;;
13263;SDS011;6700;51.988;7.646;2023-04-06T02:06:07;12.93;;;7.63;;
13263;SDS011;6700;51.988;7.646;2023-04-06T02:08:34;9.60;;;7.80;;
13263;SDS011;6700;51.988;7.646;2023-04-06T02:11:01;9.63;;;7.83;;
13263;SDS011;6700;51.988;7.646;2023-04-06T02:13:28;10.73;;;8.53;;
13263;SDS011;6700;51.988;7.646;2023-04-06T02:15:59;12.37;;;8.43;;
13263;SDS011;6700;51.988;7.646;2023-04-06T02:18:26;8.83;;;7.63;;
13263;SDS011;6700;51.988;7.646;2023-04-06T02:20:54;8.67;;;7.77;;
13263;SDS011;6700;51.988;7.646;2023-04-06T02:23:21;11.97;;;8.90;;
13263;SDS011;6700;51.988;7.646;2023-04-06T02:25:49;13.60;;;8.60;;
13263;SDS011;6700;51.988;7.646;2023-04-06T02:28:16;11.17;;;8.70;;
13263;SDS011;6700;51.988;7.646;2023-04-06T02:30:43;9.13;;;7.27;;
13263;SDS011;6700;51.988;7.646;2023-04-06T02:33:10;11.73;;;8.43;;
13263;SDS011;6700;51.988;7.646;2023-04-06T02:35:37;10.17;;;8.07;;
13263;SDS011;6700;51.988;7.646;2023-04-06T02:38:04;8.87;;;7.70;;
13263;SDS011;6700;51.988;7.646;2023-04-06T02:40:32;9.13;;;7.53;;
13263;SDS011;6700;51.988;7.646;2023-04-06T02:42:59;11.20;;;8.13;;
13263;SDS011;6700;51.988;7.646;2023-04-06T02:45:26;8.90;;;7.13;;
13263;SDS011;6700;51.988;7.646;2023-04-06T02:47:53;10.47;;;7.70;;
13263;SDS011;6700;51.988;7.646;2023-04-06T02:50:20;11.40;;;8.53;;
13263;SDS011;6700;51.988;7.646;2023-04-06T02:52:47;9.27;;;8.17;;
13263;SDS011;6700;51.988;7.646;2023-04-06T02:55:14;11.63;;;8.57;;
13263;SDS011;6700;51.988;7.646;2023-04-06T02:57:41;13.43;;;8.47;;
13263;SDS011;6700;51.988;7.646;2023-04-06T03:00:09;12.67;;;8.23;;
13263;SDS011;6700;51.988;7.646;2023-04-06T03:02:36;9.97;;;8.20;;
13263;SDS011;6700;51.988;7.646;2023-04-06T03:05:03;11.10;;;8.20;;
13263;SDS011;6700;51.988;7.646;2023-04-06T03:07:30;11.80;;;8.80;;
13263;SDS011;6700;51.988;7.646;2023-04-06T03:09:58;10.93;;;8.70;;
13263;SDS011;6700;51.988;7.646;2023-04-06T03:12:25;10.60;;;9.13;;
13263;SDS011;6700;51.988;7.646;2023-04-06T03:14:52;12.17;;;8.77;;
13263;SDS011;6700;51.988;7.646;2023-04-06T03:17:19;11.77;;;9.37;;
13263;SDS011;6700;51.988;7.646;2023-04-06T03:19:46;13.67;;;9.30;;
13263;SDS011;6700;51.988;7.646;2023-04-06T03:22:13;11.17;;;9.47;;
13263;SDS011;6700;51.988;7.646;2023-04-06T03:24:40;12.17;;;8.70;;
13263;SDS011;6700;51.988;7.646;2023-04-06T03:27:07;11.73;;;8.30;;
13263;SDS011;6700;51.988;7.646;2023-04-06T03:29:34;10.13;;;9.10;;
13263;SDS011;6700;51.988;7.646;2023-04-06T03:32:02;10.70;;;8.97;;
13263;SDS011;6700;51.988;7.646;2023-04-06T03:34:29;11.63;;;8.90;;
13263;SDS011;6700;51.988;7.646;2023-04-06T03:36:56;13.20;;;9.33;;
13263;SDS011;6700;51.988;7.646;2023-04-06T03:39:34;10.30;;;7.90;;
13263;SDS011;6700;51.988;7.646;2023-04-06T03:42:02;13.33;;;9.30;;
13263;SDS011;6700;51.988;7.646;2023-04-06T03:44:29;12.87;;;9.00;;
13263;SDS011;6700;51.988;7.646;2023-04-06T03:46:56;11.90;;;8.33;;
13263;SDS011;6700;51.988;7.646;2023-04-06T03:49:24;11.43;;;7.90;;
13263;SDS011;6700;51.988;7.646;2023-04-06T03:51:51;16.70;;;9.40;;
13263;SDS011;6700;51.988;7.646;2023-04-06T03:54:18;10.50;;;8.77;;
13263;SDS011;6700;51.988;7.646;2023-04-06T03:56:45;10.53;;;8.50;;
13263;SDS011;6700;51.988;7.646;2023-04-06T03:59:12;10.73;;;9.40;;
13263;SDS011;6700;51.988;7.646;2023-04-06T04:01:39;13.50;;;9.27;;
13263;SDS011;6700;51.988;7.646;2023-04-06T04:04:06;13.23;;;9.37;;
13263;SDS011;6700;51.988;7.646;2023-04-06T04:06:33;13.27;;;9.17;;
13263;SDS011;6700;51.988;7.646;2023-04-06T04:09:02;14.47;;;9.30;;
13263;SDS011;6700;51.988;7.646;2023-04-06T04:11:29;10.80;;;8.07;;
13263;SDS011;6700;51.988;7.646;2023-04-06T04:13:56;10.93;;;9.10;;
13263;SDS011;6700;51.988;7.646;2023-04-06T04:16:23;14.03;;;9.37;;
13263;SDS011;6700;51.988;7.646;2023-04-06T04:18:51;11.90;;;8.47;;
13263;SDS011;6700;51.988;7.646;2023-04-06T04:21:18;14.43;;;9.23;;
13263;SDS011;6700;51.988;7.646;2023-04-06T04:23:45;11.30;;;8.63;;
13263;SDS011;6700;51.988;7.646;2023-04-06T04:26:13;11.23;;;8.83;;
13263;SDS011;6700;51.988;7.646;2023-04-06T04:28:40;13.27;;;9.50;;
13263;SDS011;6700;51.988;7.646;2023-04-06T04:31:07;11.90;;;9.63;;
13263;SDS011;6700;51.988;7.646;2023-04-06T04:33:34;14.73;;;10.37;;
13263;SDS011;6700;51.988;7.646;2023-04-06T04:36:01;11.13;;;8.90;;
13263;SDS011;6700;51.988;7.646;2023-04-06T04:38:28;12.23;;;8.40;;
13263;SDS011;6700;51.988;7.646;2023-04-06T04:40:55;14.43;;;10.67;;
13263;SDS011;6700;51.988;7.646;2023-04-06T04:43:22;13.17;;;9.83;;
13263;SDS011;6700;51.988;7.646;2023-04-06T04:45:49;15.73;;;10.40;;
13263;SDS011;6700;51.988;7.646;2023-04-06T04:48:16;12.57;;;9.40;;
13263;SDS011;6700;51.988;7.646;2023-04-06T04:50:44;10.60;;;9.43;;
13263;SDS011;6700;51.988;7.646;2023-04-06T04:53:11;9.57;;;8.43;;
13263;SDS011;6700;51.988;7.646;2023-04-06T04:55:38;11.63;;;8.97;;
13263;SDS011;6700;51.988;7.646;2023-04-06T04:58:05;11.63;;;9.60;;
13263;SDS011;6700;51.988;7.646;2023-04-06T05:00:32;10.83;;;8.77;;
13263;SDS011;6700;51.988;7.646;2023-04-06T05:02:59;10.70;;;8.50;;
13263;SDS011;6700;51.988;7.646;2023-04-06T05:05:27;12.87;;;9.17;;
13263;SDS011;6700;51.988;7.646;2023-04-06T05:07:54;12.43;;;9.90;;
13263;SDS011;6700;51.988;7.646;2023-04-06T05:10:21;12.87;;;9.23;;
13263;SDS011;6700;51.988;7.646;2023-04-06T05:12:48;13.00;;;10.10;;
13263;SDS011;6700;51.988;7.646;2023-04-06T05:15:15;11.43;;;9.53;;
13263;SDS011;6700;51.988;7.646;2023-04-06T05:17:42;10.90;;;8.50;;
13263;SDS011;6700;51.988;7.646;2023-04-06T05:20:09;10.77;;;9.40;;
13263;SDS011;6700;51.988;7.646;2023-04-06T05:22:37;14.43;;;9.73;;
13263;SDS011;6700;51.988;7.646;2023-04-06T05:25:04;11.37;;;9.37;;
13263;SDS011;6700;51.988;7.646;2023-04-06T05:27:32;12.73;;;10.43;;
13263;SDS011;6700;51.988;7.646;2023-04-06T05:29:59;14.40;;;10.03;;
13263;SDS011;6700;51.988;7.646;2023-04-06T05:32:27;13.87;;;9.50;;
13263;SDS011;6700;51.988;7.646;2023-04-06T05:34:54;11.10;;;9.30;;
13263;SDS011;6700;51.988;7.646;2023-04-06T05:37:22;11.43;;;9.77;;
13263;SDS011;6700;51.988;7.646;2023-04-06T05:39:49;13.03;;;10.07;;
13263;SDS011;6700;51.988;7.646;2023-04-06T05:42:16;16.67;;;10.63;;
13263;SDS011;6700;51.988;7.646;2023-04-06T05:44:43;11.40;;;10.10;;
13263;SDS011;6700;51.988;7.646;2023-04-06T05:47:10;14.67;;;9.60;;
13263;SDS011;6700;51.988;7.646;2023-04-06T05:49:37;13.13;;;9.63;;
13263;SDS011;6700;51.988;7.646;2023-04-06T05:52:04;17.00;;;9.93;;
13263;SDS011;6700;51.988;7.646;2023-04-06T05:54:32;13.10;;;10.30;;
13263;SDS011;6700;51.988;7.646;2023-04-06T05:56:59;10.90;;;9.63;;
13263;SDS011;6700;51.988;7.646;2023-04-06T05:59:29;14.80;;;9.27;;
13263;SDS011;6700;51.988;7.646;2023-04-06T06:01:57;12.70;;;9.23;;
13263;SDS011;6700;51.988;7.646;2023-04-06T06:04:24;13.03;;;8.90;;
13263;SDS011;6700;51.988;7.646;2023-04-06T06:06:51;17.13;;;9.33;;
13263;SDS011;6700;51.988;7.646;2023-04-06T06:09:18;10.27;;;9.03;;
13263;SDS011;6700;51.988;7.646;2023-04-06T06:11:45;13.00;;;9.33;;
13263;SDS011;6700;51.988;7.646;2023-04-06T06:14:12;13.93;;;9.47;;
13263;SDS011;6700;51.988;7.646;2023-04-06T06:16:39;16.47;;;9.10;;
13263;SDS011;6700;51.988;7.646;2023-04-06T06:19:07;15.63;;;9.10;;
13263;SDS011;6700;51.988;7.646;2023-04-06T06:21:34;12.53;;;9.23;;
13263;SDS011;6700;51.988;7.646;2023-04-06T06:24:01;10.93;;;7.50;;
13263;SDS011;6700;51.988;7.646;2023-04-06T06:26:28;9.47;;;8.47;;
13263;SDS011;6700;51.988;7.646;2023-04-06T06:28:55;11.43;;;8.20;;
13263;SDS011;6700;51.988;7.646;2023-04-06T06:31:23;10.37;;;8.73;;
13263;SDS011;6700;51.988;7.646;2023-04-06T06:33:50;11.70;;;8.90;;
13263;SDS011;6700;51.988;7.646;2023-04-06T06:36:17;13.80;;;8.53;;
13263;SDS011;6700;51.988;7.646;2023-04-06T06:38:45;13.07;;;9.63;;
13263;SDS011;6700;51.988;7.646;2023-04-06T06:41:12;11.87;;;8.57;;
13263;SDS011;6700;51.988;7.646;2023-04-06T06:43:39;15.67;;;9.70;;
13263;SDS011;6700;51.988;7.646;2023-04-06T06:46:06;13.47;;;8.37;;
13263;SDS011;6700;51.988;7.646;2023-04-06T06:48:33;10.50;;;8.60;;
13263;SDS011;6700;51.988;7.646;2023-04-06T06:51:00;11.53;;;8.13;;
13263;SDS011;6700;51.988;7.646;2023-04-06T06:53:28;10.20;;;8.50;;
13263;SDS011;6700;51.988;7.646;2023-04-06T06:55:55;15.77;;;8.23;;
13263;SDS011;6700;51.988;7.646;2023-04-06T06:58:22;13.50;;;8.97;;
13263;SDS011;6700;51.988;7.646;2023-04-06T07:00:49;9.07;;;7.67;;
13263;SDS011;6700;51.988;7.646;2023-04-06T07:03:16;9.33;;;7.70;;
13263;SDS011;6700;51.988;7.646;2023-04-06T07:05:46;10.37;;;7.57;;
13263;SDS011;6700;51.988;7.646;2023-04-06T07:08:20;13.83;;;7.30;;
13263;SDS011;6700;51.988;7.646;2023-04-06T07:10:48;9.93;;;8.10;;
13263;SDS011;6700;51.988;7.646;2023-04-06T07:13:16;9.07;;;7.17;;
13263;SDS011;6700;51.988;7.646;2023-04-06T07:15:48;8.97;;;7.97;;
13263;SDS011;6700;51.988;7.646;2023-04-06T07:18:15;9.33;;;8.23;;
13263;SDS011;6700;51.988;7.646;2023-04-06T07:20:43;10.70;;;7.77;;
13263;SDS011;6700;51.988;7.646;2023-04-06T07:23:10;10.53;;;7.87;;
13263;SDS011;6700;51.988;7.646;2023-04-06T07:25:38;8.87;;;7.97;;
13263;SDS011;6700;51.988;7.646;2023-04-06T07:28:05;11.60;;;8.37;;
13263;SDS011;6700;51.988;7.646;2023-04-06T07:30:32;9.23;;;7.40;;
13263;SDS011;6700;51.988;7.646;2023-04-06T07:33:02;8.43;;;7.47;;
13263;SDS011;6700;51.988;7.646;2023-04-06T07:35:29;11.43;;;7.03;;
13263;SDS011;6700;51.988;7.646;2023-04-06T07:37:56;9.23;;;7.90;;
13263;SDS011;6700;51.988;7.646;2023-04-06T07:40:23;12.43;;;8.00;;
13263;SDS011;6700;51.988;7.646;2023-04-06T07:42:52;11.40;;;7.83;;
13263;SDS011;6700;51.988;7.646;2023-04-06T07:45:21;9.27;;;7.87;;
13263;SDS011;6700;51.988;7.646;2023-04-06T07:47:48;8.03;;;7.23;;
13263;SDS011;6700;51.988;7.646;2023-04-06T07:50:16;8.70;;;7.40;;
13263;SDS011;6700;51.988;7.646;2023-04-06T07:52:43;12.27;;;8.27;;
13263;SDS011;6700;51.988;7.646;2023-04-06T07:55:10;10.93;;;7.70;;
13263;SDS011;6700;51.988;7.646;2023-04-06T07:57:37;8.47;;;7.50;;
13263;SDS011;6700;51.988;7.646;2023-04-06T08:00:04;9.17;;;8.10;;
13263;SDS011;6700;51.988;7.646;2023-04-06T08:02:32;11.60;;;7.93;;
13263;SDS011;6700;51.988;7.646;2023-04-06T08:04:59;9.70;;;7.40;;
13263;SDS011;6700;51.988;7.646;2023-04-06T08:07:26;11.00;;;8.10;;
13263;SDS011;6700;51.988;7.646;2023-04-06T08:09:53;9.63;;;7.77;;
13263;SDS011;6700;51.988;7.646;2023-04-06T08:12:21;9.23;;;7.70;;
13263;SDS011;6700;51.988;7.646;2023-04-06T08:14:48;9.60;;;7.93;;
13263;SDS011;6700;51.988;7.646;2023-04-06T08:17:15;10.97;;;7.37;;
13263;SDS011;6700;51.988;7.646;2023-04-06T08:19:43;10.43;;;7.83;;
13263;SDS011;6700;51.988;7.646;2023-04-06T08:22:10;8.60;;;7.63;;
13263;SDS011;6700;51.988;7.646;2023-04-06T08:24:38;9.20;;;7.53;;
13263;SDS011;6700;51.988;7.646;2023-04-06T08:27:05;12.00;;;7.90;;
13263;SDS011;6700;51.988;7.646;2023-04-06T08:29:32;11.90;;;8.50;;
13263;SDS011;6700;51.988;7.646;2023-04-06T08:31:59;9.33;;;8.30;;
13263;SDS011;6700;51.988;7.646;2023-04-06T08:34:29;10.97;;;7.83;;
13263;SDS011;6700;51.988;7.646;2023-04-06T08:36:56;12.13;;;8.73;;
13263;SDS011;6700;51.988;7.646;2023-04-06T08:39:23;9.20;;;7.90;;
13263;SDS011;6700;51.988;7.646;2023-04-06T08:41:52;10.37;;;8.20;;
13263;SDS011;6700;51.988;7.646;2023-04-06T08:44:22;10.60;;;7.80;;
13263;SDS011;6700;51.988;7.646;2023-04-06T08:46:50;13.43;;;8.50;;
13263;SDS011;6700;51.988;7.646;2023-04-06T08:49:19;10.17;;;7.63;;
13263;SDS011;6700;51.988;7.646;2023-04-06T08:51:46;12.30;;;8.43;;
13263;SDS011;6700;51.988;7.646;2023-04-06T08:54:13;10.27;;;9.27;;
13263;SDS011;6700;51.988;7.646;2023-04-06T08:56:41;10.73;;;8.37;;
13263;SDS011;6700;51.988;7.646;2023-04-06T08:59:08;10.07;;;8.37;;
13263;SDS011;6700;51.988;7.646;2023-04-06T09:01:38;10.10;;;8.50;;
13263;SDS011;6700;51.988;7.646;2023-04-06T09:04:07;10.40;;;8.33;;
13263;SDS011;6700;51.988;7.646;2023-04-06T09:06:38;12.10;;;9.03;;
13263;SDS011;6700;51.988;7.646;2023-04-06T09:09:07;10.57;;;8.27;;
13263;SDS011;6700;51.988;7.646;2023-04-06T09:11:43;11.90;;;9.00;;
13263;SDS011;6700;51.988;7.646;2023-04-06T09:14:11;9.43;;;8.53;;
13263;SDS011;6700;51.988;7.646;2023-04-06T09:16:41;12.30;;;8.97;;
13263;SDS011;6700;51.988;7.646;2023-04-06T09:19:09;11.23;;;8.73;;
13263;SDS011;6700;51.988;7.646;2023-04-06T09:21:36;10.77;;;9.37;;
13263;SDS011;6700;51.988;7.646;2023-04-06T09:24:03;12.57;;;9.47;;
13263;SDS011;6700;51.988;7.646;2023-04-06T09:26:31;16.37;;;9.90;;
13263;SDS011;6700;51.988;7.646;2023-04-06T09:29:00;10.27;;;9.17;;
13263;SDS011;6700;51.988;7.646;2023-04-06T09:31:28;11.47;;;9.40;;
13263;SDS011;6700;51.988;7.646;2023-04-06T09:33:56;13.90;;;9.57;;
13263;SDS011;6700;51.988;7.646;2023-04-06T09:36:33;11.17;;;9.20;;
13263;SDS011;6700;51.988;7.646;2023-04-06T09:39:02;15.63;;;10.57;;
13263;SDS011;6700;51.988;7.646;2023-04-06T09:41:30;22.20;;;10.20;;
13263;SDS011;6700;51.988;7.646;2023-04-06T09:44:02;17.43;;;10.50;;
13263;SDS011;6700;51.988;7.646;2023-04-06T09:46:33;16.37;;;10.17;;
13263;SDS011;6700;51.988;7.646;2023-04-06T09:49:16;17.93;;;10.37;;
13263;SDS011;6700;51.988;7.646;2023-04-06T09:51:47;12.77;;;9.90;;
13263;SDS011;6700;51.988;7.646;2023-04-06T09:54:15;12.43;;;9.90;;
13263;SDS011;6700;51.988;7.646;2023-04-06T09:56:50;12.37;;;9.63;;
13263;SDS011;6700;51.988;7.646;2023-04-06T10:01:58;13.37;;;10.67;;
13263;SDS011;6700;51.988;7.646;2023-04-06T10:06:59;13.67;;;11.70;;
13263;SDS011;6700;51.988;7.646;2023-04-06T10:09:28;13.47;;;12.07;;
13263;SDS011;6700;51.988;7.646;2023-04-06T10:12:04;12.53;;;11.23;;
13263;SDS011;6700;51.988;7.646;2023-04-06T10:14:34;12.47;;;11.17;;
13263;SDS011;6700;51.988;7.646;2023-04-06T10:17:04;14.17;;;12.50;;
13263;SDS011;6700;51.988;7.646;2023-04-06T10:22:08;14.07;;;11.73;;
13263;SDS011;6700;51.988;7.646;2023-04-06T10:24:37;19.83;;;13.93;;
13263;SDS011;6700;51.988;7.646;2023-04-06T10:27:04;20.17;;;12.67;;
13263;SDS011;6700;51.988;7.646;2023-04-06T10:29:47;17.57;;;13.07;;
13263;SDS011;6700;51.988;7.646;2023-04-06T10:32:15;16.73;;;13.73;;
13263;SDS011;6700;51.988;7.646;2023-04-06T10:34:42;16.27;;;13.67;;
13263;SDS011;6700;51.988;7.646;2023-04-06T10:37:15;19.83;;;13.80;;
13263;SDS011;6700;51.988;7.646;2023-04-06T10:39:54;14.30;;;12.87;;
13263;SDS011;6700;51.988;7.646;2023-04-06T10:42:24;20.30;;;14.13;;
13263;SDS011;6700;51.988;7.646;2023-04-06T10:44:53;20.67;;;13.30;;
13263;SDS011;6700;51.988;7.646;2023-04-06T10:47:20;23.53;;;13.93;;
13263;SDS011;6700;51.988;7.646;2023-04-06T10:49:48;14.33;;;12.10;;
13263;SDS011;6700;51.988;7.646;2023-04-06T10:52:15;16.03;;;13.27;;
13263;SDS011;6700;51.988;7.646;2023-04-06T10:54:42;15.20;;;12.50;;
13263;SDS011;6700;51.988;7.646;2023-04-06T10:57:10;16.27;;;13.30;;
13263;SDS011;6700;51.988;7.646;2023-04-06T10:59:41;18.73;;;13.90;;
13263;SDS011;6700;51.988;7.646;2023-04-06T11:02:08;15.77;;;12.63;;
13263;SDS011;6700;51.988;7.646;2023-04-06T11:04:35;14.20;;;12.43;;
13263;SDS011;6700;51.988;7.646;2023-04-06T11:07:03;17.93;;;13.00;;
13263;SDS011;6700;51.988;7.646;2023-04-06T11:09:30;15.37;;;12.30;;
13263;SDS011;6700;51.988;7.646;2023-04-06T11:12:02;14.00;;;11.93;;
13263;SDS011;6700;51.988;7.646;2023-04-06T11:14:29;15.33;;;12.70;;
13263;SDS011;6700;51.988;7.646;2023-04-06T11:16:56;14.37;;;12.70;;
13263;SDS011;6700;51.988;7.646;2023-04-06T11:19:24;14.07;;;11.73;;
13263;SDS011;6700;51.988;7.646;2023-04-06T11:21:51;15.27;;;11.93;;
13263;SDS011;6700;51.988;7.646;2023-04-06T11:24:19;13.73;;;11.93;;
13263;SDS011;6700;51.988;7.646;2023-04-06T11:26:53;14.80;;;12.07;;
13263;SDS011;6700;51.988;7.646;2023-04-06T11:29:21;14.80;;;12.23;;
13263;SDS011;6700;51.988;7.646;2023-04-06T11:31:49;17.67;;;12.53;;
13263;SDS011;6700;51.988;7.646;2023-04-06T11:34:18;17.80;;;13.20;;
13263;SDS011;6700;51.988;7.646;2023-04-06T11:36:45;13.83;;;11.87;;
13263;SDS011;6700;51.988;7.646;2023-04-06T11:39:13;16.73;;;13.00;;
13263;SDS011;6700;51.988;7.646;2023-04-06T11:41:48;19.00;;;13.17;;
13263;SDS011;6700;51.988;7.646;2023-04-06T11:44:15;17.10;;;14.00;;
13263;SDS011;6700;51.988;7.646;2023-04-06T11:46:51;16.77;;;13.10;;
13263;SDS011;6700;51.988;7.646;2023-04-06T11:49:18;15.23;;;12.97;;
13263;SDS011;6700;51.988;7.646;2023-04-06T11:51:45;14.47;;;11.83;;
13263;SDS011;6700;51.988;7.646;2023-04-06T11:54:13;13.83;;;11.97;;
13263;SDS011;6700;51.988;7.646;2023-04-06T11:56:40;14.80;;;12.97;;
13263;SDS011;6700;51.988;7.646;2023-04-06T11:59:07;15.43;;;12.80;;
13263;SDS011;6700;51.988;7.646;2023-04-06T12:01:34;16.87;;;13.57;;
13263;SDS011;6700;51.988;7.646;2023-04-06T12:04:11;17.17;;;12.30;;
13263;SDS011;6700;51.988;7.646;2023-04-06T12:06:38;14.63;;;12.97;;
13263;SDS011;6700;51.988;7.646;2023-04-06T12:09:05;18.03;;;13.37;;
13263;SDS011;6700;51.988;7.646;2023-04-06T12:11:32;15.80;;;12.13;;
13263;SDS011;6700;51.988;7.646;2023-04-06T12:14:00;13.30;;;11.90;;
13263;SDS011;6700;51.988;7.646;2023-04-06T12:16:27;16.57;;;12.00;;
13263;SDS011;6700;51.988;7.646;2023-04-06T12:18:54;14.60;;;12.03;;
13263;SDS011;6700;51.988;7.646;2023-04-06T12:21:22;13.13;;;10.80;;
13263;SDS011;6700;51.988;7.646;2023-04-06T12:23:49;14.27;;;12.60;;
13263;SDS011;6700;51.988;7.646;2023-04-06T12:26:16;14.30;;;11.73;;
13263;SDS011;6700;51.988;7.646;2023-04-06T12:28:43;14.43;;;11.90;;
13263;SDS011;6700;51.988;7.646;2023-04-06T12:31:17;16.07;;;12.50;;
13263;SDS011;6700;51.988;7.646;2023-04-06T12:33:50;14.03;;;11.77;;
13263;SDS011;6700;51.988;7.646;2023-04-06T12:36:19;13.60;;;11.40;;
13263;SDS011;6700;51.988;7.646;2023-04-06T12:38:47;10.90;;;9.67;;
13263;SDS011;6700;51.988;7.646;2023-04-06T12:41:14;14.40;;;10.60;;
13263;SDS011;6700;51.988;7.646;2023-04-06T12:43:41;12.33;;;10.93;;
13263;SDS011;6700;51.988;7.646;2023-04-06T12:46:09;11.10;;;9.63;;
13263;SDS011;6700;51.988;7.646;2023-04-06T12:48:36;12.53;;;9.53;;
13263;SDS011;6700;51.988;7.646;2023-04-06T12:51:04;11.50;;;10.33;;
13263;SDS011;6700;51.988;7.646;2023-04-06T12:53:32;12.40;;;10.53;;
13263;SDS011;6700;51.988;7.646;2023-04-06T12:56:01;11.70;;;9.80;;
13263;SDS011;6700;51.988;7.646;2023-04-06T12:58:28;14.07;;;10.50;;
13263;SDS011;6700;51.988;7.646;2023-04-06T13:00:57;12.60;;;10.80;;
13263;SDS011;6700;51.988;7.646;2023-04-06T13:03:28;12.00;;;10.80;;
13263;SDS011;6700;51.988;7.646;2023-04-06T13:05:56;12.73;;;10.27;;
13263;SDS011;6700;51.988;7.646;2023-04-06T13:08:23;15.80;;;10.77;;
13263;SDS011;6700;51.988;7.646;2023-04-06T13:10:51;15.87;;;12.13;;
13263;SDS011;6700;51.988;7.646;2023-04-06T13:13:21;17.53;;;11.93;;
13263;SDS011;6700;51.988;7.646;2023-04-06T13:15:48;17.63;;;11.97;;
13263;SDS011;6700;51.988;7.646;2023-04-06T13:18:16;14.53;;;12.33;;
13263;SDS011;6700;51.988;7.646;2023-04-06T13:20:43;14.57;;;12.93;;
13263;SDS011;6700;51.988;7.646;2023-04-06T13:23:10;17.50;;;12.10;;
13263;SDS011;6700;51.988;7.646;2023-04-06T13:25:37;15.97;;;13.00;;
13263;SDS011;6700;51.988;7.646;2023-04-06T13:28:04;16.10;;;12.93;;
13263;SDS011;6700;51.988;7.646;2023-04-06T13:30:31;18.73;;;13.60;;
13263;SDS011;6700;51.988;7.646;2023-04-06T13:32:59;13.20;;;11.80;;
13263;SDS011;6700;51.988;7.646;2023-04-06T13:35:26;14.27;;;12.70;;
13263;SDS011;6700;51.988;7.646;2023-04-06T13:37:53;17.53;;;12.83;;
13263;SDS011;6700;51.988;7.646;2023-04-06T13:40:20;15.47;;;13.03;;
13263;SDS011;6700;51.988;7.646;2023-04-06T13:42:48;17.07;;;13.40;;
13263;SDS011;6700;51.988;7.646;2023-04-06T13:45:15;17.57;;;14.07;;
13263;SDS011;6700;51.988;7.646;2023-04-06T13:47:42;18.53;;;13.80;;
13263;SDS011;6700;51.988;7.646;2023-04-06T13:50:09;16.30;;;12.83;;
13263;SDS011;6700;51.988;7.646;2023-04-06T13:52:36;14.67;;;12.70;;
13263;SDS011;6700;51.988;7.646;2023-04-06T13:55:03;16.07;;;13.33;;
13263;SDS011;6700;51.988;7.646;2023-04-06T13:57:31;18.27;;;14.17;;
13263;SDS011;6700;51.988;7.646;2023-04-06T13:59:58;18.63;;;13.97;;
13263;SDS011;6700;51.988;7.646;2023-04-06T14:02:25;19.63;;;13.97;;
13263;SDS011;6700;51.988;7.646;2023-04-06T14:04:53;18.43;;;14.37;;
13263;SDS011;6700;51.988;7.646;2023-04-06T14:07:21;18.53;;;14.53;;
13263;SDS011;6700;51.988;7.646;2023-04-06T14:09:49;19.53;;;14.10;;
13263;SDS011;6700;51.988;7.646;2023-04-06T14:12:16;17.57;;;14.97;;
13263;SDS011;6700;51.988;7.646;2023-04-06T14:14:44;22.07;;;14.53;;
13263;SDS011;6700;51.988;7.646;2023-04-06T14:17:11;17.53;;;14.37;;
13263;SDS011;6700;51.988;7.646;2023-04-06T14:19:38;18.40;;;14.00;;
13263;SDS011;6700;51.988;7.646;2023-04-06T14:22:06;16.93;;;14.77;;
13263;SDS011;6700;51.988;7.646;2023-04-06T14:24:33;19.17;;;15.57;;
13263;SDS011;6700;51.988;7.646;2023-04-06T14:27:01;17.47;;;15.40;;
13263;SDS011;6700;51.988;7.646;2023-04-06T14:29:28;21.50;;;15.80;;
13263;SDS011;6700;51.988;7.646;2023-04-06T14:31:56;20.13;;;15.40;;
13263;SDS011;6700;51.988;7.646;2023-04-06T14:34:26;20.93;;;16.33;;
13263;SDS011;6700;51.988;7.646;2023-04-06T14:36:53;19.20;;;16.03;;
13263;SDS011;6700;51.988;7.646;2023-04-06T14:39:21;20.57;;;16.20;;
13263;SDS011;6700;51.988;7.646;2023-04-06T14:41:48;19.03;;;15.60;;
13263;SDS011;6700;51.988;7.646;2023-04-06T14:44:16;18.53;;;15.10;;
13263;SDS011;6700;51.988;7.646;2023-04-06T14:46:43;16.10;;;13.37;;
13263;SDS011;6700;51.988;7.646;2023-04-06T14:49:10;19.33;;;14.47;;
13263;SDS011;6700;51.988;7.646;2023-04-06T14:51:39;20.30;;;14.27;;
13263;SDS011;6700;51.988;7.646;2023-04-06T14:54:06;16.93;;;14.17;;
13263;SDS011;6700;51.988;7.646;2023-04-06T14:56:33;18.37;;;13.90;;